sensor_id;sensor_type;location;lat;lon;timestamp;P1;durP1;ratioP1;P2;durP2;ratioP2
78057;SDS011;67265;52.514;13.292;2023-12-20T00:08:01;5.78;;;3.10;;
78057;SDS011;67265;52.514;13.292;2023-12-20T00:10:29;5.03;;;2.53;;
78057;SDS011;67265;52.514;13.292;2023-12-20T00:12:56;6.18;;;2.70;;
78057;SDS011;67265;52.514;13.292;2023-12-20T00:15:22;6.60;;;3.60;;
78057;SDS011;67265;52.514;13.292;2023-12-20T00:22:56;7.00;;;3.03;;
78057;SDS011;67265;52.514;13.292;2023-12-20T00:27:53;6.05;;;3.10;;
78057;SDS011;67265;52.514;13.292;2023-12-20T00:30:21;5.38;;;2.85;;
78057;SDS011;67265;52.514;13.292;2023-12-20T00:32:48;4.55;;;2.72;;
78057;SDS011;67265;52.514;13.292;2023-12-20T00:35:15;4.93;;;2.70;;
78057;SDS011;67265;52.514;13.292;2023-12-20T00:51:11;5.43;;;3.10;;
78057;SDS011;67265;52.514;13.292;2023-12-20T00:53:39;4.47;;;2.50;;
78057;SDS011;67265;52.514;13.292;2023-12-20T00:56:06;6.22;;;2.80;;
78057;SDS011;67265;52.514;13.292;2023-12-20T00:58:33;6.07;;;2.92;;
78057;SDS011;67265;52.514;13.292;2023-12-20T01:00:59;5.78;;;3.28;;
78057;SDS011;67265;52.514;13.292;2023-12-20T01:03:27;5.97;;;2.97;;
78057;SDS011;67265;52.514;13.292;2023-12-20T01:05:53;6.63;;;3.22;;
78057;SDS011;67265;52.514;13.292;2023-12-20T01:08:20;6.22;;;3.42;;
78057;SDS011;67265;52.514;13.292;2023-12-20T01:10:46;5.63;;;3.38;;
78057;SDS011;67265;52.514;13.292;2023-12-20T01:13:13;7.38;;;3.55;;
78057;SDS011;67265;52.514;13.292;2023-12-20T01:15:40;7.18;;;3.70;;
78057;SDS011;67265;52.514;13.292;2023-12-20T01:18:06;7.47;;;3.35;;
78057;SDS011;67265;52.514;13.292;2023-12-20T01:20:33;7.38;;;3.88;;
78057;SDS011;67265;52.514;13.292;2023-12-20T01:23:00;6.55;;;3.50;;
78057;SDS011;67265;52.514;13.292;2023-12-20T01:25:26;7.18;;;3.25;;
78057;SDS011;67265;52.514;13.292;2023-12-20T01:27:53;6.40;;;3.13;;
78057;SDS011;67265;52.514;13.292;2023-12-20T01:30:24;6.88;;;3.60;;
78057;SDS011;67265;52.514;13.292;2023-12-20T01:32:51;5.68;;;2.75;;
78057;SDS011;67265;52.514;13.292;2023-12-20T01:38:02;5.65;;;2.97;;
78057;SDS011;67265;52.514;13.292;2023-12-20T01:40:28;6.07;;;3.17;;
78057;SDS011;67265;52.514;13.292;2023-12-20T01:45:31;6.05;;;3.15;;
78057;SDS011;67265;52.514;13.292;2023-12-20T02:15:03;6.95;;;3.28;;
78057;SDS011;67265;52.514;13.292;2023-12-20T02:22:40;5.93;;;3.03;;
78057;SDS011;67265;52.514;13.292;2023-12-20T02:25:07;5.30;;;2.40;;
78057;SDS011;67265;52.514;13.292;2023-12-20T02:35:23;8.85;;;3.72;;
78057;SDS011;67265;52.514;13.292;2023-12-20T02:37:49;8.73;;;3.92;;
78057;SDS011;67265;52.514;13.292;2023-12-20T02:40:16;8.77;;;3.97;;
78057;SDS011;67265;52.514;13.292;2023-12-20T02:42:43;6.60;;;3.53;;
78057;SDS011;67265;52.514;13.292;2023-12-20T02:45:10;7.30;;;3.63;;
78057;SDS011;67265;52.514;13.292;2023-12-20T02:47:37;9.38;;;3.72;;
78057;SDS011;67265;52.514;13.292;2023-12-20T02:50:03;7.80;;;3.72;;
78057;SDS011;67265;52.514;13.292;2023-12-20T02:52:30;9.80;;;4.07;;
78057;SDS011;67265;52.514;13.292;2023-12-20T02:54:57;8.82;;;3.85;;
78057;SDS011;67265;52.514;13.292;2023-12-20T02:57:26;9.07;;;3.97;;
78057;SDS011;67265;52.514;13.292;2023-12-20T02:59:53;10.18;;;3.67;;
78057;SDS011;67265;52.514;13.292;2023-12-20T03:02:19;12.75;;;3.42;;
78057;SDS011;67265;52.514;13.292;2023-12-20T03:04:46;11.52;;;3.45;;
78057;SDS011;67265;52.514;13.292;2023-12-20T03:07:14;7.97;;;3.17;;
78057;SDS011;67265;52.514;13.292;2023-12-20T03:09:41;9.35;;;3.10;;
78057;SDS011;67265;52.514;13.292;2023-12-20T03:12:27;8.55;;;3.17;;
78057;SDS011;67265;52.514;13.292;2023-12-20T03:14:54;6.65;;;2.67;;
78057;SDS011;67265;52.514;13.292;2023-12-20T03:17:20;7.00;;;2.78;;
78057;SDS011;67265;52.514;13.292;2023-12-20T03:19:47;7.13;;;2.65;;
78057;SDS011;67265;52.514;13.292;2023-12-20T03:22:15;8.18;;;2.90;;
78057;SDS011;67265;52.514;13.292;2023-12-20T03:24:41;8.18;;;2.45;;
78057;SDS011;67265;52.514;13.292;2023-12-20T03:27:08;7.65;;;2.45;;
78057;SDS011;67265;52.514;13.292;2023-12-20T03:29:34;5.68;;;2.03;;
78057;SDS011;67265;52.514;13.292;2023-12-20T03:32:01;8.52;;;2.50;;
78057;SDS011;67265;52.514;13.292;2023-12-20T03:34:28;4.82;;;2.13;;
78057;SDS011;67265;52.514;13.292;2023-12-20T03:36:55;6.65;;;2.47;;
78057;SDS011;67265;52.514;13.292;2023-12-20T03:39:24;3.92;;;1.60;;
78057;SDS011;67265;52.514;13.292;2023-12-20T03:41:51;5.18;;;1.30;;
78057;SDS011;67265;52.514;13.292;2023-12-20T03:44:18;3.03;;;1.10;;
78057;SDS011;67265;52.514;13.292;2023-12-20T03:46:44;5.20;;;1.42;;
78057;SDS011;67265;52.514;13.292;2023-12-20T03:49:14;5.43;;;1.30;;
78057;SDS011;67265;52.514;13.292;2023-12-20T03:51:40;6.03;;;1.25;;
78057;SDS011;67265;52.514;13.292;2023-12-20T03:54:08;3.08;;;0.95;;
78057;SDS011;67265;52.514;13.292;2023-12-20T03:56:34;5.63;;;1.20;;
78057;SDS011;67265;52.514;13.292;2023-12-20T03:59:01;7.35;;;1.50;;
78057;SDS011;67265;52.514;13.292;2023-12-20T04:01:27;5.95;;;1.10;;
78057;SDS011;67265;52.514;13.292;2023-12-20T04:03:54;5.32;;;0.98;;
78057;SDS011;67265;52.514;13.292;2023-12-20T04:06:21;3.15;;;1.20;;
78057;SDS011;67265;52.514;13.292;2023-12-20T04:08:48;4.43;;;1.20;;
78057;SDS011;67265;52.514;13.292;2023-12-20T04:11:15;4.35;;;0.95;;
78057;SDS011;67265;52.514;13.292;2023-12-20T04:13:42;4.72;;;1.27;;
78057;SDS011;67265;52.514;13.292;2023-12-20T04:16:09;5.70;;;1.33;;
78057;SDS011;67265;52.514;13.292;2023-12-20T04:18:39;8.40;;;1.20;;
78057;SDS011;67265;52.514;13.292;2023-12-20T04:21:06;8.70;;;1.80;;
78057;SDS011;67265;52.514;13.292;2023-12-20T04:23:33;4.03;;;1.05;;
78057;SDS011;67265;52.514;13.292;2023-12-20T04:26:00;4.18;;;1.15;;
78057;SDS011;67265;52.514;13.292;2023-12-20T04:28:27;7.13;;;1.40;;
78057;SDS011;67265;52.514;13.292;2023-12-20T04:30:56;7.47;;;0.80;;
78057;SDS011;67265;52.514;13.292;2023-12-20T04:33:23;5.40;;;1.00;;
78057;SDS011;67265;52.514;13.292;2023-12-20T04:35:50;7.05;;;1.08;;
78057;SDS011;67265;52.514;13.292;2023-12-20T04:38:16;6.50;;;1.05;;
78057;SDS011;67265;52.514;13.292;2023-12-20T04:40:44;5.10;;;0.95;;
78057;SDS011;67265;52.514;13.292;2023-12-20T04:43:10;3.42;;;0.80;;
78057;SDS011;67265;52.514;13.292;2023-12-20T04:45:37;1.88;;;0.90;;
78057;SDS011;67265;52.514;13.292;2023-12-20T04:48:05;6.68;;;1.27;;
78057;SDS011;67265;52.514;13.292;2023-12-20T04:50:33;4.18;;;1.15;;
78057;SDS011;67265;52.514;13.292;2023-12-20T04:53:00;8.45;;;1.10;;
78057;SDS011;67265;52.514;13.292;2023-12-20T04:55:29;4.75;;;0.90;;
78057;SDS011;67265;52.514;13.292;2023-12-20T04:57:56;4.93;;;0.88;;
78057;SDS011;67265;52.514;13.292;2023-12-20T05:00:23;4.05;;;1.10;;
78057;SDS011;67265;52.514;13.292;2023-12-20T05:02:49;5.40;;;0.90;;
78057;SDS011;67265;52.514;13.292;2023-12-20T05:05:16;8.98;;;1.52;;
78057;SDS011;67265;52.514;13.292;2023-12-20T05:07:44;7.22;;;1.23;;
78057;SDS011;67265;52.514;13.292;2023-12-20T05:10:11;5.22;;;1.02;;
78057;SDS011;67265;52.514;13.292;2023-12-20T05:12:38;8.98;;;1.30;;
78057;SDS011;67265;52.514;13.292;2023-12-20T05:15:06;6.05;;;1.05;;
78057;SDS011;67265;52.514;13.292;2023-12-20T05:17:34;3.55;;;1.00;;
78057;SDS011;67265;52.514;13.292;2023-12-20T05:20:01;6.63;;;1.05;;
78057;SDS011;67265;52.514;13.292;2023-12-20T05:22:27;4.20;;;0.80;;
78057;SDS011;67265;52.514;13.292;2023-12-20T05:24:55;6.20;;;0.80;;
78057;SDS011;67265;52.514;13.292;2023-12-20T05:28:08;4.07;;;0.68;;
78057;SDS011;67265;52.514;13.292;2023-12-20T05:30:52;4.35;;;0.70;;
78057;SDS011;67265;52.514;13.292;2023-12-20T05:33:20;6.78;;;1.05;;
78057;SDS011;67265;52.514;13.292;2023-12-20T05:35:47;6.88;;;1.40;;
78057;SDS011;67265;52.514;13.292;2023-12-20T05:38:13;2.58;;;0.50;;
78057;SDS011;67265;52.514;13.292;2023-12-20T05:40:40;3.10;;;1.38;;
78057;SDS011;67265;52.514;13.292;2023-12-20T05:43:06;6.65;;;0.90;;
78057;SDS011;67265;52.514;13.292;2023-12-20T05:45:33;8.50;;;1.30;;
78057;SDS011;67265;52.514;13.292;2023-12-20T05:48:00;3.70;;;0.80;;
78057;SDS011;67265;52.514;13.292;2023-12-20T05:50:27;7.20;;;1.10;;
78057;SDS011;67265;52.514;13.292;2023-12-20T05:52:53;6.50;;;0.85;;
78057;SDS011;67265;52.514;13.292;2023-12-20T05:55:20;5.75;;;1.02;;
78057;SDS011;67265;52.514;13.292;2023-12-20T05:57:46;1.33;;;0.82;;
78057;SDS011;67265;52.514;13.292;2023-12-20T06:00:14;3.25;;;0.60;;
78057;SDS011;67265;52.514;13.292;2023-12-20T06:02:41;3.47;;;1.23;;
78057;SDS011;67265;52.514;13.292;2023-12-20T06:05:10;8.23;;;0.98;;
78057;SDS011;67265;52.514;13.292;2023-12-20T06:07:37;6.18;;;1.38;;
78057;SDS011;67265;52.514;13.292;2023-12-20T06:10:03;2.38;;;0.70;;
78057;SDS011;67265;52.514;13.292;2023-12-20T06:12:33;5.65;;;1.08;;
78057;SDS011;67265;52.514;13.292;2023-12-20T06:20:12;5.30;;;0.95;;
78057;SDS011;67265;52.514;13.292;2023-12-20T06:22:39;6.97;;;1.10;;
78057;SDS011;67265;52.514;13.292;2023-12-20T06:25:06;4.00;;;0.93;;
78057;SDS011;67265;52.514;13.292;2023-12-20T06:27:33;1.88;;;0.80;;
78057;SDS011;67265;52.514;13.292;2023-12-20T06:29:59;7.43;;;1.33;;
78057;SDS011;67265;52.514;13.292;2023-12-20T06:32:26;8.73;;;2.03;;
78057;SDS011;67265;52.514;13.292;2023-12-20T06:34:55;5.20;;;1.45;;
78057;SDS011;67265;52.514;13.292;2023-12-20T06:37:22;8.75;;;1.00;;
78057;SDS011;67265;52.514;13.292;2023-12-20T06:39:48;2.13;;;1.00;;
78057;SDS011;67265;52.514;13.292;2023-12-20T06:42:15;5.57;;;1.70;;
78057;SDS011;67265;52.514;13.292;2023-12-20T06:47:20;6.25;;;1.40;;
78057;SDS011;67265;52.514;13.292;2023-12-20T06:49:47;4.80;;;0.95;;
78057;SDS011;67265;52.514;13.292;2023-12-20T06:52:15;5.40;;;1.05;;
78057;SDS011;67265;52.514;13.292;2023-12-20T06:54:42;4.72;;;1.10;;
78057;SDS011;67265;52.514;13.292;2023-12-20T06:57:10;7.10;;;1.40;;
78057;SDS011;67265;52.514;13.292;2023-12-20T06:59:40;4.32;;;1.20;;
78057;SDS011;67265;52.514;13.292;2023-12-20T07:02:08;4.10;;;0.70;;
78057;SDS011;67265;52.514;13.292;2023-12-20T07:04:40;4.68;;;1.08;;
78057;SDS011;67265;52.514;13.292;2023-12-20T07:07:07;3.72;;;0.82;;
78057;SDS011;67265;52.514;13.292;2023-12-20T07:09:35;8.05;;;0.98;;
78057;SDS011;67265;52.514;13.292;2023-12-20T07:12:02;3.05;;;1.05;;
78057;SDS011;67265;52.514;13.292;2023-12-20T07:14:31;5.05;;;1.27;;
78057;SDS011;67265;52.514;13.292;2023-12-20T07:16:58;2.88;;;0.93;;
78057;SDS011;67265;52.514;13.292;2023-12-20T07:19:24;5.63;;;1.20;;
78057;SDS011;67265;52.514;13.292;2023-12-20T07:21:51;10.65;;;1.73;;
78057;SDS011;67265;52.514;13.292;2023-12-20T07:24:18;7.15;;;1.33;;
78057;SDS011;67265;52.514;13.292;2023-12-20T07:26:45;1.83;;;1.20;;
78057;SDS011;67265;52.514;13.292;2023-12-20T07:29:14;6.50;;;1.40;;
78057;SDS011;67265;52.514;13.292;2023-12-20T07:31:42;7.20;;;1.08;;
78057;SDS011;67265;52.514;13.292;2023-12-20T07:34:10;4.78;;;1.38;;
78057;SDS011;67265;52.514;13.292;2023-12-20T07:36:41;4.57;;;0.90;;
78057;SDS011;67265;52.514;13.292;2023-12-20T07:39:08;5.40;;;0.82;;
78057;SDS011;67265;52.514;13.292;2023-12-20T07:41:34;6.85;;;1.55;;
78057;SDS011;67265;52.514;13.292;2023-12-20T07:44:05;4.82;;;0.95;;
78057;SDS011;67265;52.514;13.292;2023-12-20T07:46:31;5.07;;;1.00;;
78057;SDS011;67265;52.514;13.292;2023-12-20T07:48:58;4.63;;;0.85;;
78057;SDS011;67265;52.514;13.292;2023-12-20T07:51:25;4.38;;;0.70;;
78057;SDS011;67265;52.514;13.292;2023-12-20T07:53:52;7.25;;;0.85;;
78057;SDS011;67265;52.514;13.292;2023-12-20T07:56:19;7.28;;;1.10;;
78057;SDS011;67265;52.514;13.292;2023-12-20T07:58:46;7.22;;;1.10;;
78057;SDS011;67265;52.514;13.292;2023-12-20T08:01:19;10.35;;;1.35;;
78057;SDS011;67265;52.514;13.292;2023-12-20T08:03:46;6.47;;;0.93;;
78057;SDS011;67265;52.514;13.292;2023-12-20T08:06:15;8.48;;;0.98;;
78057;SDS011;67265;52.514;13.292;2023-12-20T08:08:43;6.07;;;1.42;;
78057;SDS011;67265;52.514;13.292;2023-12-20T08:11:10;6.93;;;1.30;;
78057;SDS011;67265;52.514;13.292;2023-12-20T08:13:37;2.38;;;0.47;;
78057;SDS011;67265;52.514;13.292;2023-12-20T08:16:03;3.53;;;1.17;;
78057;SDS011;67265;52.514;13.292;2023-12-20T08:18:31;5.20;;;1.05;;
78057;SDS011;67265;52.514;13.292;2023-12-20T08:21:00;2.38;;;1.00;;
78057;SDS011;67265;52.514;13.292;2023-12-20T08:23:27;4.65;;;1.08;;
78057;SDS011;67265;52.514;13.292;2023-12-20T08:25:58;8.50;;;1.30;;
78057;SDS011;67265;52.514;13.292;2023-12-20T08:28:24;5.78;;;0.80;;
78057;SDS011;67265;52.514;13.292;2023-12-20T08:30:51;5.07;;;1.00;;
78057;SDS011;67265;52.514;13.292;2023-12-20T08:33:20;3.65;;;0.50;;
78057;SDS011;67265;52.514;13.292;2023-12-20T08:35:47;3.72;;;0.93;;
78057;SDS011;67265;52.514;13.292;2023-12-20T08:38:13;2.58;;;0.68;;
78057;SDS011;67265;52.514;13.292;2023-12-20T08:40:40;3.03;;;0.80;;
78057;SDS011;67265;52.514;13.292;2023-12-20T08:43:11;3.65;;;0.63;;
78057;SDS011;67265;52.514;13.292;2023-12-20T08:45:37;3.38;;;0.85;;
78057;SDS011;67265;52.514;13.292;2023-12-20T08:48:06;2.50;;;0.68;;
78057;SDS011;67265;52.514;13.292;2023-12-20T08:50:35;5.90;;;1.48;;
78057;SDS011;67265;52.514;13.292;2023-12-20T08:53:03;5.00;;;0.90;;
78057;SDS011;67265;52.514;13.292;2023-12-20T08:55:29;7.30;;;0.95;;
78057;SDS011;67265;52.514;13.292;2023-12-20T08:57:57;4.65;;;0.80;;
78057;SDS011;67265;52.514;13.292;2023-12-20T09:00:24;6.20;;;1.13;;
78057;SDS011;67265;52.514;13.292;2023-12-20T09:02:54;2.90;;;0.75;;
78057;SDS011;67265;52.514;13.292;2023-12-20T09:05:21;6.55;;;1.08;;
78057;SDS011;67265;52.514;13.292;2023-12-20T09:07:48;6.05;;;0.70;;
78057;SDS011;67265;52.514;13.292;2023-12-20T09:10:15;4.63;;;0.75;;
78057;SDS011;67265;52.514;13.292;2023-12-20T09:12:44;4.20;;;0.80;;
78057;SDS011;67265;52.514;13.292;2023-12-20T09:15:13;7.10;;;0.93;;
78057;SDS011;67265;52.514;13.292;2023-12-20T09:17:40;3.35;;;0.55;;
78057;SDS011;67265;52.514;13.292;2023-12-20T09:20:08;5.80;;;0.90;;
78057;SDS011;67265;52.514;13.292;2023-12-20T09:22:35;7.38;;;1.05;;
78057;SDS011;67265;52.514;13.292;2023-12-20T09:25:02;2.65;;;0.60;;
78057;SDS011;67265;52.514;13.292;2023-12-20T09:27:30;4.05;;;0.70;;
78057;SDS011;67265;52.514;13.292;2023-12-20T09:29:59;4.72;;;0.93;;
78057;SDS011;67265;52.514;13.292;2023-12-20T09:32:26;6.70;;;0.70;;
78057;SDS011;67265;52.514;13.292;2023-12-20T09:34:53;5.43;;;1.33;;
78057;SDS011;67265;52.514;13.292;2023-12-20T09:37:20;8.35;;;0.85;;
78057;SDS011;67265;52.514;13.292;2023-12-20T09:39:46;5.45;;;1.23;;
78057;SDS011;67265;52.514;13.292;2023-12-20T09:42:13;4.75;;;0.90;;
78057;SDS011;67265;52.514;13.292;2023-12-20T09:44:43;5.43;;;0.80;;
78057;SDS011;67265;52.514;13.292;2023-12-20T09:47:13;3.30;;;1.05;;
78057;SDS011;67265;52.514;13.292;2023-12-20T09:49:41;6.60;;;0.63;;
78057;SDS011;67265;52.514;13.292;2023-12-20T09:52:09;7.88;;;0.80;;
78057;SDS011;67265;52.514;13.292;2023-12-20T09:54:36;3.72;;;1.10;;
78057;SDS011;67265;52.514;13.292;2023-12-20T09:57:03;4.85;;;0.52;;
78057;SDS011;67265;52.514;13.292;2023-12-20T09:59:30;5.70;;;0.85;;
78057;SDS011;67265;52.514;13.292;2023-12-20T10:01:57;4.22;;;0.65;;
78057;SDS011;67265;52.514;13.292;2023-12-20T10:04:24;5.32;;;1.25;;
78057;SDS011;67265;52.514;13.292;2023-12-20T10:06:56;4.03;;;0.73;;
78057;SDS011;67265;52.514;13.292;2023-12-20T10:09:23;6.30;;;0.90;;
78057;SDS011;67265;52.514;13.292;2023-12-20T10:11:50;11.48;;;0.90;;
78057;SDS011;67265;52.514;13.292;2023-12-20T10:14:20;8.50;;;1.02;;
78057;SDS011;67265;52.514;13.292;2023-12-20T10:16:49;5.07;;;1.20;;
78057;SDS011;67265;52.514;13.292;2023-12-20T10:19:17;7.57;;;1.30;;
78057;SDS011;67265;52.514;13.292;2023-12-20T10:21:44;3.97;;;0.63;;
78057;SDS011;67265;52.514;13.292;2023-12-20T10:24:16;6.47;;;1.02;;
78057;SDS011;67265;52.514;13.292;2023-12-20T10:26:43;5.07;;;1.45;;
78057;SDS011;67265;52.514;13.292;2023-12-20T10:29:10;5.43;;;1.20;;
78057;SDS011;67265;52.514;13.292;2023-12-20T10:31:37;2.00;;;0.43;;
78057;SDS011;67265;52.514;13.292;2023-12-20T10:34:06;3.80;;;0.68;;
78057;SDS011;67265;52.514;13.292;2023-12-20T10:36:35;3.67;;;1.10;;
78057;SDS011;67265;52.514;13.292;2023-12-20T10:39:03;5.18;;;0.95;;
78057;SDS011;67265;52.514;13.292;2023-12-20T10:41:33;6.72;;;0.93;;
78057;SDS011;67265;52.514;13.292;2023-12-20T10:44:01;5.22;;;1.13;;
78057;SDS011;67265;52.514;13.292;2023-12-20T10:46:30;5.80;;;1.05;;
78057;SDS011;67265;52.514;13.292;2023-12-20T10:48:59;3.67;;;0.95;;
78057;SDS011;67265;52.514;13.292;2023-12-20T10:51:29;3.92;;;0.88;;
78057;SDS011;67265;52.514;13.292;2023-12-20T10:53:56;5.95;;;0.82;;
78057;SDS011;67265;52.514;13.292;2023-12-20T10:56:23;6.00;;;1.27;;
78057;SDS011;67265;52.514;13.292;2023-12-20T10:58:50;5.15;;;0.95;;
78057;SDS011;67265;52.514;13.292;2023-12-20T11:01:17;4.40;;;0.77;;
78057;SDS011;67265;52.514;13.292;2023-12-20T11:03:52;4.70;;;1.05;;
78057;SDS011;67265;52.514;13.292;2023-12-20T11:14:47;3.78;;;0.95;;
78057;SDS011;67265;52.514;13.292;2023-12-20T11:17:18;6.88;;;0.75;;
78057;SDS011;67265;52.514;13.292;2023-12-20T11:22:24;4.15;;;1.02;;
78057;SDS011;67265;52.514;13.292;2023-12-20T11:24:54;3.65;;;1.02;;
78057;SDS011;67265;52.514;13.292;2023-12-20T11:27:25;6.25;;;0.80;;
78057;SDS011;67265;52.514;13.292;2023-12-20T11:29:56;8.10;;;1.67;;
78057;SDS011;67265;52.514;13.292;2023-12-20T11:34:55;5.18;;;1.25;;
78057;SDS011;67265;52.514;13.292;2023-12-20T11:37:25;5.93;;;1.58;;
78057;SDS011;67265;52.514;13.292;2023-12-20T11:40:02;8.65;;;1.58;;
78057;SDS011;67265;52.514;13.292;2023-12-20T11:42:37;3.92;;;0.93;;
78057;SDS011;67265;52.514;13.292;2023-12-20T11:45:04;4.75;;;1.27;;
78057;SDS011;67265;52.514;13.292;2023-12-20T11:47:33;5.63;;;1.80;;
78057;SDS011;67265;52.514;13.292;2023-12-20T11:50:01;6.15;;;1.15;;
78057;SDS011;67265;52.514;13.292;2023-12-20T11:52:30;6.82;;;0.95;;
78057;SDS011;67265;52.514;13.292;2023-12-20T11:54:57;5.97;;;1.27;;
78057;SDS011;67265;52.514;13.292;2023-12-20T11:57:24;6.00;;;0.80;;
78057;SDS011;67265;52.514;13.292;2023-12-20T11:59:53;4.53;;;1.13;;
78057;SDS011;67265;52.514;13.292;2023-12-20T12:02:20;4.57;;;0.70;;
78057;SDS011;67265;52.514;13.292;2023-12-20T12:04:48;8.90;;;1.40;;
78057;SDS011;67265;52.514;13.292;2023-12-20T12:07:15;5.30;;;1.00;;
78057;SDS011;67265;52.514;13.292;2023-12-20T12:09:43;4.93;;;1.02;;
78057;SDS011;67265;52.514;13.292;2023-12-20T12:12:11;5.43;;;1.20;;
78057;SDS011;67265;52.514;13.292;2023-12-20T12:14:39;5.07;;;1.00;;
78057;SDS011;67265;52.514;13.292;2023-12-20T12:17:12;7.15;;;0.80;;
78057;SDS011;67265;52.514;13.292;2023-12-20T12:19:41;2.72;;;0.88;;
78057;SDS011;67265;52.514;13.292;2023-12-20T12:22:08;6.78;;;0.80;;
78057;SDS011;67265;52.514;13.292;2023-12-20T12:24:42;3.28;;;0.70;;
78057;SDS011;67265;52.514;13.292;2023-12-20T12:27:09;4.50;;;0.88;;
78057;SDS011;67265;52.514;13.292;2023-12-20T12:29:36;3.90;;;1.00;;
78057;SDS011;67265;52.514;13.292;2023-12-20T12:32:06;4.97;;;0.95;;
78057;SDS011;67265;52.514;13.292;2023-12-20T12:34:36;5.07;;;1.15;;
78057;SDS011;67265;52.514;13.292;2023-12-20T12:37:06;4.97;;;1.30;;
78057;SDS011;67265;52.514;13.292;2023-12-20T12:39:33;5.57;;;0.90;;
78057;SDS011;67265;52.514;13.292;2023-12-20T12:42:00;5.28;;;0.88;;
78057;SDS011;67265;52.514;13.292;2023-12-20T12:44:27;3.63;;;0.90;;
78057;SDS011;67265;52.514;13.292;2023-12-20T12:46:53;4.13;;;1.02;;
78057;SDS011;67265;52.514;13.292;2023-12-20T12:49:20;4.05;;;0.85;;
78057;SDS011;67265;52.514;13.292;2023-12-20T12:51:48;5.70;;;1.15;;
78057;SDS011;67265;52.514;13.292;2023-12-20T12:54:15;7.25;;;1.50;;
78057;SDS011;67265;52.514;13.292;2023-12-20T12:56:44;5.80;;;1.23;;
78057;SDS011;67265;52.514;13.292;2023-12-20T12:59:11;4.38;;;1.20;;
78057;SDS011;67265;52.514;13.292;2023-12-20T13:01:38;5.78;;;1.20;;
78057;SDS011;67265;52.514;13.292;2023-12-20T13:04:05;4.82;;;1.10;;
78057;SDS011;67265;52.514;13.292;2023-12-20T13:06:37;4.03;;;1.20;;
78057;SDS011;67265;52.514;13.292;2023-12-20T13:09:07;4.97;;;1.50;;
78057;SDS011;67265;52.514;13.292;2023-12-20T13:11:36;7.80;;;1.42;;
78057;SDS011;67265;52.514;13.292;2023-12-20T13:14:02;6.60;;;1.52;;
78057;SDS011;67265;52.514;13.292;2023-12-20T13:16:30;6.82;;;2.08;;
78057;SDS011;67265;52.514;13.292;2023-12-20T13:18:57;5.13;;;1.65;;
78057;SDS011;67265;52.514;13.292;2023-12-20T13:21:26;6.75;;;1.60;;
78057;SDS011;67265;52.514;13.292;2023-12-20T13:23:55;2.58;;;1.00;;
78057;SDS011;67265;52.514;13.292;2023-12-20T13:26:22;3.50;;;1.33;;
78057;SDS011;67265;52.514;13.292;2023-12-20T13:28:49;1.73;;;0.85;;
78057;SDS011;67265;52.514;13.292;2023-12-20T13:31:16;1.33;;;0.50;;
78057;SDS011;67265;52.514;13.292;2023-12-20T13:33:43;1.10;;;0.10;;
78057;SDS011;67265;52.514;13.292;2023-12-20T13:36:09;3.00;;;0.17;;
78057;SDS011;67265;52.514;13.292;2023-12-20T13:38:36;1.42;;;0.10;;
78057;SDS011;67265;52.514;13.292;2023-12-20T13:41:03;2.72;;;0.28;;
78057;SDS011;67265;52.514;13.292;2023-12-20T13:43:31;3.03;;;0.50;;
78057;SDS011;67265;52.514;13.292;2023-12-20T13:45:59;2.17;;;0.25;;
78057;SDS011;67265;52.514;13.292;2023-12-20T13:48:25;0.65;;;0.28;;
78057;SDS011;67265;52.514;13.292;2023-12-20T13:50:52;1.10;;;0.32;;
78057;SDS011;67265;52.514;13.292;2023-12-20T13:53:18;0.45;;;0.20;;
78057;SDS011;67265;52.514;13.292;2023-12-20T13:55:45;2.13;;;0.85;;
78057;SDS011;67265;52.514;13.292;2023-12-20T13:58:13;1.65;;;0.75;;
78057;SDS011;67265;52.514;13.292;2023-12-20T14:00:40;2.97;;;0.40;;
78057;SDS011;67265;52.514;13.292;2023-12-20T14:03:06;1.50;;;0.80;;
78057;SDS011;67265;52.514;13.292;2023-12-20T14:05:35;1.63;;;0.65;;
78057;SDS011;67265;52.514;13.292;2023-12-20T14:08:02;3.92;;;0.57;;
78057;SDS011;67265;52.514;13.292;2023-12-20T14:10:29;0.85;;;0.30;;
78057;SDS011;67265;52.514;13.292;2023-12-20T14:12:56;1.58;;;0.17;;
78057;SDS011;67265;52.514;13.292;2023-12-20T14:15:23;0.73;;;0.25;;
78057;SDS011;67265;52.514;13.292;2023-12-20T14:17:52;0.80;;;0.43;;
78057;SDS011;67265;52.514;13.292;2023-12-20T14:20:23;2.05;;;0.52;;
78057;SDS011;67265;52.514;13.292;2023-12-20T14:22:50;0.60;;;0.30;;
78057;SDS011;67265;52.514;13.292;2023-12-20T14:25:17;0.90;;;0.30;;
78057;SDS011;67265;52.514;13.292;2023-12-20T14:27:43;1.15;;;0.10;;
78057;SDS011;67265;52.514;13.292;2023-12-20T14:30:11;1.05;;;0.28;;
78057;SDS011;67265;52.514;13.292;2023-12-20T14:32:41;2.28;;;0.15;;
78057;SDS011;67265;52.514;13.292;2023-12-20T14:35:08;0.80;;;0.32;;
78057;SDS011;67265;52.514;13.292;2023-12-20T14:37:36;1.38;;;0.60;;
78057;SDS011;67265;52.514;13.292;2023-12-20T14:40:07;0.95;;;0.30;;
78057;SDS011;67265;52.514;13.292;2023-12-20T14:42:37;2.80;;;0.43;;
78057;SDS011;67265;52.514;13.292;2023-12-20T14:45:04;2.85;;;0.20;;
78057;SDS011;67265;52.514;13.292;2023-12-20T14:47:31;0.80;;;0.30;;
78057;SDS011;67265;52.514;13.292;2023-12-20T14:49:58;1.95;;;0.30;;
78057;SDS011;67265;52.514;13.292;2023-12-20T14:52:26;2.40;;;0.17;;
78057;SDS011;67265;52.514;13.292;2023-12-20T14:54:53;1.50;;;0.43;;
78057;SDS011;67265;52.514;13.292;2023-12-20T14:57:21;0.95;;;0.25;;
78057;SDS011;67265;52.514;13.292;2023-12-20T14:59:48;1.60;;;0.13;;
78057;SDS011;67265;52.514;13.292;2023-12-20T15:02:18;2.67;;;0.75;;
78057;SDS011;67265;52.514;13.292;2023-12-20T15:04:45;4.25;;;0.40;;
78057;SDS011;67265;52.514;13.292;2023-12-20T15:07:15;2.33;;;0.40;;
78057;SDS011;67265;52.514;13.292;2023-12-20T15:09:44;1.48;;;0.15;;
78057;SDS011;67265;52.514;13.292;2023-12-20T15:12:19;2.00;;;0.43;;
78057;SDS011;67265;52.514;13.292;2023-12-20T15:14:45;2.17;;;0.17;;
78057;SDS011;67265;52.514;13.292;2023-12-20T15:17:12;1.77;;;0.38;;
78057;SDS011;67265;52.514;13.292;2023-12-20T15:19:41;1.38;;;0.30;;
78057;SDS011;67265;52.514;13.292;2023-12-20T15:22:09;2.20;;;0.30;;
78057;SDS011;67265;52.514;13.292;2023-12-20T15:24:38;0.85;;;0.40;;
78057;SDS011;67265;52.514;13.292;2023-12-20T15:27:08;1.75;;;0.30;;
78057;SDS011;67265;52.514;13.292;2023-12-20T15:29:36;1.65;;;0.40;;
78057;SDS011;67265;52.514;13.292;2023-12-20T15:32:02;4.32;;;0.30;;
78057;SDS011;67265;52.514;13.292;2023-12-20T15:34:30;0.90;;;0.40;;
78057;SDS011;67265;52.514;13.292;2023-12-20T15:36:58;1.15;;;0.55;;
78057;SDS011;67265;52.514;13.292;2023-12-20T15:39:25;3.55;;;0.70;;
78057;SDS011;67265;52.514;13.292;2023-12-20T15:41:51;3.35;;;0.52;;
78057;SDS011;67265;52.514;13.292;2023-12-20T15:44:18;3.03;;;0.50;;
78057;SDS011;67265;52.514;13.292;2023-12-20T15:46:45;4.70;;;0.30;;
78057;SDS011;67265;52.514;13.292;2023-12-20T15:49:12;2.38;;;0.73;;
78057;SDS011;67265;52.514;13.292;2023-12-20T15:51:40;3.53;;;0.47;;
78057;SDS011;67265;52.514;13.292;2023-12-20T15:56:37;0.98;;;0.32;;
78057;SDS011;67265;52.514;13.292;2023-12-20T15:59:04;4.65;;;0.57;;
78057;SDS011;67265;52.514;13.292;2023-12-20T16:01:30;4.00;;;0.77;;
78057;SDS011;67265;52.514;13.292;2023-12-20T16:03:58;2.33;;;0.25;;
78057;SDS011;67265;52.514;13.292;2023-12-20T16:06:25;1.25;;;0.65;;
78057;SDS011;67265;52.514;13.292;2023-12-20T16:08:52;2.95;;;0.45;;
78057;SDS011;67265;52.514;13.292;2023-12-20T16:11:24;2.67;;;0.47;;
78057;SDS011;67265;52.514;13.292;2023-12-20T16:13:54;4.00;;;0.70;;